Aérodrome :
LOGIN :

S'inscrire | Disclaimer

   EN    FR    IT 

 










Légende :    VFR   VFR Marginal   IFR   IFR Intensif   IFR Très Intensif
Visi : 
Plafond : 
>= 8 km
>= 3000ft
5 à 8 km
1000 à 3000 ft
1500m à 5 km
500 à 1000 ft
800 à 1500m
200 à 500 ft
< 800m
< 200 ft
Symboles :   Orages  Brouillard  Fortes neiges  Fortes précipitations  Vent > 20 kt
SIGMETs :   Divers  Orages  Givrage  Turbulence  Onde Orograph.  Cendres Volcan.







- Altitude de l'aérodrome : 461 ft
- Code IATA : WIE


ETOU - Wiesbaden Army

DERNIER METAR :
  • 230556Z AUTO 25005KT 9000 RA BR SCT008 14/14 A2996 RMK AO2 VIS 3600 RWY07 SLP144 P0009 60017 T01400135 10184 20140 52024 $

METARs EXPIRÉS :
  • 230534Z AUTO 24005KT 9999 RA SCT007 BKN014 14/14 A2996 RMK AO2 VIS 4400 RWY07 CIG 008V014 BKN V SCT SLP144 $
  • 230516Z AUTO 25004KT 9999 -RA SCT016 BKN048 14/14 A2995 RMK AO2 SLP141 $
  • 230456Z AUTO 26005KT 9999 -RA SCT017 BKN050 14/14 A2994 RMK AO2 RAE29RAB31 SLP138 P0004 T01440138 $
  • 230431Z AUTO 27005KT 9999 -RA FEW020 15/14 A2993 RMK AO2 RAE29RAB31 SLP134 $
  • 230356Z AUTO 27005KT 9999 RA OVC065 15/13 A2992 RMK AO2 RAE0255DZB0255E0257DZB00E11RAB11 SLP130 P0003 T01450132

TAF AMD TAF ETOU
Valide du 23 à 05h jusqu'au 24 à 09h UTC


230542Z 2305/2409 27009KT 8000 -SHRA BKN008 QNH2985INS
TEMPO 2307/2310 26010G15KT BKN015
BECMG 2311/2312 25009KT 9999 NSW SCT030 QNH2996INS
BECMG 2315/2316 VRB06KT 9999 BKN040 QNH2990INS TX21/2313Z TN10/2403Z
Pas de NOTAMs connus pour ce terrain.



MET'MAP, la Météo Aéronautique d'un coup d'oeil ! - Copyright ORBIFLY Décembre 2007 - Disclaimer

ORBIFLY MET'MAP TEAM :

Programmation & Développement : Alexandra Zaïnal
Conception & Développement : Baudouin d'Aumeries
Co-Programmation & Développement : Marc-Olivier Méhu
Soutien technique & logistique : Manuel Goepfert

Contact : metmap@orbifly.com




SOURCES & CREDITS :

   NOAA